sensor_id;sensor_type;location;lat;lon;timestamp;pressure;altitude;pressure_sealevel;temperature;humidity
5350;BME280;2697;42.144;24.794;2024-03-06T00:00:25;-8064.88;;;10.05;100.00
5350;BME280;2697;42.144;24.794;2024-03-06T00:02:51;-8733.22;;;9.99;100.00
5350;BME280;2697;42.144;24.794;2024-03-06T00:05:16;-9402.31;;;10.02;100.00
5350;BME280;2697;42.144;24.794;2024-03-06T00:07:42;-9738.53;;;10.15;100.00
5350;BME280;2697;42.144;24.794;2024-03-06T00:10:07;-9739.06;;;10.19;100.00
5350;BME280;2697;42.144;24.794;2024-03-06T00:12:33;-9405.44;;;10.25;100.00
5350;BME280;2697;42.144;24.794;2024-03-06T00:14:59;-9070.41;;;10.21;100.00
5350;BME280;2697;42.144;24.794;2024-03-06T00:17:24;-9070.78;;;10.24;100.00
5350;BME280;2697;42.144;24.794;2024-03-06T00:19:50;-7731.75;;;10.18;100.00
5350;BME280;2697;42.144;24.794;2024-03-06T00:22:16;-8066.28;;;10.17;100.00
5350;BME280;2697;42.144;24.794;2024-03-06T00:24:42;-8066.00;;;10.15;100.00
5350;BME280;2697;42.144;24.794;2024-03-06T00:27:07;-8065.84;;;10.13;100.00
5350;BME280;2697;42.144;24.794;2024-03-06T00:29:33;-8067.16;;;10.25;100.00
5350;BME280;2697;42.144;24.794;2024-03-06T00:31:58;-7064.13;;;10.35;100.00
5350;BME280;2697;42.144;24.794;2024-03-06T00:34:24;-4385.34;;;10.39;100.00
5350;BME280;2697;42.144;24.794;2024-03-06T00:36:49;-3715.28;;;10.39;100.00
5350;BME280;2697;42.144;24.794;2024-03-06T00:39:15;-3044.56;;;10.22;100.00
5350;BME280;2697;42.144;24.794;2024-03-06T00:41:40;-4048.38;;;9.97;100.00
5350;BME280;2697;42.144;24.794;2024-03-06T00:44:07;-6393.22;;;10.19;100.00
5350;BME280;2697;42.144;24.794;2024-03-06T00:46:32;-4384.88;;;10.30;100.00
5350;BME280;2697;42.144;24.794;2024-03-06T00:48:57;-3380.16;;;10.38;100.00
5350;BME280;2697;42.144;24.794;2024-03-06T00:51:23;-2374.81;;;10.42;100.00
5350;BME280;2697;42.144;24.794;2024-03-06T00:53:48;-698.44;;;10.38;100.00
5350;BME280;2697;42.144;24.794;2024-03-06T00:56:14;-698.53;;;10.28;100.00
5350;BME280;2697;42.144;24.794;2024-03-06T00:58:39;-1369.06;;;10.39;100.00
5350;BME280;2697;42.144;24.794;2024-03-06T01:01:05;-27.81;;;10.34;100.00
5350;BME280;2697;42.144;24.794;2024-03-06T01:03:30;307.28;;;10.23;100.00
5350;BME280;2697;42.144;24.794;2024-03-06T01:05:56;-1033.84;;;10.11;100.00
5350;BME280;2697;42.144;24.794;2024-03-06T01:08:22;-2039.06;;;10.04;100.00
5350;BME280;2697;42.144;24.794;2024-03-06T01:10:50;-3378.88;;;10.03;100.00
5350;BME280;2697;42.144;24.794;2024-03-06T01:13:16;-4383.34;;;10.00;100.00
5350;BME280;2697;42.144;24.794;2024-03-06T01:15:42;-4383.44;;;10.02;100.00
5350;BME280;2697;42.144;24.794;2024-03-06T01:18:07;-5387.81;;;10.03;100.00
5350;BME280;2697;42.144;24.794;2024-03-06T01:20:34;-5388.75;;;10.17;100.00
5350;BME280;2697;42.144;24.794;2024-03-06T01:22:59;-5388.72;;;10.16;100.00
5350;BME280;2697;42.144;24.794;2024-03-06T01:25:25;-5387.81;;;10.03;100.00
5350;BME280;2697;42.144;24.794;2024-03-06T01:27:50;-7061.78;;;10.10;100.00
5350;BME280;2697;42.144;24.794;2024-03-06T01:30:15;-6726.84;;;10.07;100.00
5350;BME280;2697;42.144;24.794;2024-03-06T01:32:41;-7396.06;;;10.07;100.00
5350;BME280;2697;42.144;24.794;2024-03-06T01:35:06;-7395.66;;;10.03;100.00
5350;BME280;2697;42.144;24.794;2024-03-06T01:37:32;-7397.09;;;10.17;100.00
5350;BME280;2697;42.144;24.794;2024-03-06T01:39:57;-7062.00;;;10.13;100.00
5350;BME280;2697;42.144;24.794;2024-03-06T01:42:23;-7396.94;;;10.16;100.00
5350;BME280;2697;42.144;24.794;2024-03-06T01:44:49;-7397.75;;;10.24;100.00
5350;BME280;2697;42.144;24.794;2024-03-06T01:47:14;-7061.63;;;10.09;100.00
5350;BME280;2697;42.144;24.794;2024-03-06T01:49:40;-7396.78;;;10.14;100.00
5350;BME280;2697;42.144;24.794;2024-03-06T01:52:07;-6727.63;;;10.16;100.00
5350;BME280;2697;42.144;24.794;2024-03-06T01:54:34;-6727.50;;;10.14;100.00
5350;BME280;2697;42.144;24.794;2024-03-06T01:57:01;-7398.22;;;10.28;100.00
5350;BME280;2697;42.144;24.794;2024-03-06T01:59:28;-7397.28;;;10.19;100.00
5350;BME280;2697;42.144;24.794;2024-03-06T02:01:54;-7063.47;;;10.28;100.00
5350;BME280;2697;42.144;24.794;2024-03-06T02:04:20;-6059.50;;;10.32;100.00
5350;BME280;2697;42.144;24.794;2024-03-06T02:06:46;-5725.16;;;10.39;100.00
5350;BME280;2697;42.144;24.794;2024-03-06T02:09:12;-4385.28;;;10.38;100.00
5350;BME280;2697;42.144;24.794;2024-03-06T02:11:39;-3379.78;;;10.28;100.00
5350;BME280;2697;42.144;24.794;2024-03-06T02:14:05;-4049.94;;;10.31;100.00
5350;BME280;2697;42.144;24.794;2024-03-06T02:16:35;-4049.81;;;10.28;100.00
5350;BME280;2697;42.144;24.794;2024-03-06T02:19:00;-4385.00;;;10.33;100.00
5350;BME280;2697;42.144;24.794;2024-03-06T02:21:26;-2709.56;;;10.25;100.00
5350;BME280;2697;42.144;24.794;2024-03-06T02:23:52;-3714.78;;;10.27;100.00
5350;BME280;2697;42.144;24.794;2024-03-06T02:26:21;-3714.81;;;10.28;100.00
5350;BME280;2697;42.144;24.794;2024-03-06T02:28:51;-4384.94;;;10.31;100.00
5350;BME280;2697;42.144;24.794;2024-03-06T02:31:17;-4049.47;;;10.20;100.00
5350;BME280;2697;42.144;24.794;2024-03-06T02:33:46;-4383.69;;;10.07;100.00
5350;BME280;2697;42.144;24.794;2024-03-06T02:36:13;-5053.16;;;10.05;100.00
5350;BME280;2697;42.144;24.794;2024-03-06T02:38:39;-5723.28;;;10.13;100.00
5350;BME280;2697;42.144;24.794;2024-03-06T02:41:05;-5053.47;;;10.10;100.00
5350;BME280;2697;42.144;24.794;2024-03-06T02:43:35;-5723.28;;;10.13;100.00
5350;BME280;2697;42.144;24.794;2024-03-06T02:46:00;-5053.84;;;10.16;100.00
5350;BME280;2697;42.144;24.794;2024-03-06T02:48:26;-5054.22;;;10.21;100.00
5350;BME280;2697;42.144;24.794;2024-03-06T02:50:52;-5052.78;;;9.98;100.00
5350;BME280;2697;42.144;24.794;2024-03-06T02:53:17;-5053.09;;;10.04;100.00
5350;BME280;2697;42.144;24.794;2024-03-06T02:55:42;-5052.91;;;10.00;100.00
5350;BME280;2697;42.144;24.794;2024-03-06T02:58:08;-4719.47;;;10.24;100.00
5350;BME280;2697;42.144;24.794;2024-03-06T03:00:33;-3044.13;;;10.07;100.00
5350;BME280;2697;42.144;24.794;2024-03-06T03:02:58;-3043.94;;;10.01;100.00
5350;BME280;2697;42.144;24.794;2024-03-06T03:05:24;-3713.78;;;10.03;100.00
5350;BME280;2697;42.144;24.794;2024-03-06T03:07:50;-4049.13;;;10.13;100.00
5350;BME280;2697;42.144;24.794;2024-03-06T03:10:16;-1704.06;;;10.08;100.00
5350;BME280;2697;42.144;24.794;2024-03-06T03:12:41;-2039.06;;;10.03;100.00
5350;BME280;2697;42.144;24.794;2024-03-06T03:15:08;-2039.00;;;9.99;100.00
5350;BME280;2697;42.144;24.794;2024-03-06T03:17:33;-1704.13;;;10.15;100.00
5350;BME280;2697;42.144;24.794;2024-03-06T03:19:59;-698.63;;;10.16;100.00
5350;BME280;2697;42.144;24.794;2024-03-06T03:22:25;-698.56;;;10.26;100.00
5350;BME280;2697;42.144;24.794;2024-03-06T03:24:50;978.41;;;10.34;100.00
5350;BME280;2697;42.144;24.794;2024-03-06T03:27:15;2654.63;;;10.12;100.00
5350;BME280;2697;42.144;24.794;2024-03-06T03:29:41;2320.09;;;10.27;100.00
5350;BME280;2697;42.144;24.794;2024-03-06T03:32:06;2991.09;;;10.26;100.00
5350;BME280;2697;42.144;24.794;2024-03-06T03:34:34;3663.53;;;10.41;100.00
5350;BME280;2697;42.144;24.794;2024-03-06T03:36:59;5005.47;;;10.30;100.00
5350;BME280;2697;42.144;24.794;2024-03-06T03:39:24;4334.13;;;10.31;100.00
5350;BME280;2697;42.144;24.794;2024-03-06T03:41:50;5004.91;;;10.24;100.00
5350;BME280;2697;42.144;24.794;2024-03-06T03:44:17;5340.09;;;10.18;100.00
5350;BME280;2697;42.144;24.794;2024-03-06T03:46:44;5002.66;;;10.02;100.00
5350;BME280;2697;42.144;24.794;2024-03-06T03:49:10;3661.69;;;10.18;100.00
5350;BME280;2697;42.144;24.794;2024-03-06T03:51:36;3662.28;;;10.25;100.00
5350;BME280;2697;42.144;24.794;2024-03-06T03:54:02;5675.38;;;10.14;100.00
5350;BME280;2697;42.144;24.794;2024-03-06T03:56:28;4668.50;;;10.17;100.00
5350;BME280;2697;42.144;24.794;2024-03-06T03:58:53;3997.13;;;10.16;100.00
5350;BME280;2697;42.144;24.794;2024-03-06T04:01:18;3997.91;;;10.25;100.00
5350;BME280;2697;42.144;24.794;2024-03-06T04:03:45;4668.31;;;10.15;100.00
5350;BME280;2697;42.144;24.794;2024-03-06T04:06:10;4333.47;;;10.24;100.00
5350;BME280;2697;42.144;24.794;2024-03-06T04:08:36;4668.78;;;10.20;100.00
5350;BME280;2697;42.144;24.794;2024-03-06T04:11:03;4667.63;;;10.08;100.00
5350;BME280;2697;42.144;24.794;2024-03-06T04:13:29;5674.59;;;10.07;100.00
5350;BME280;2697;42.144;24.794;2024-03-06T04:15:54;5339.22;;;10.10;100.00
5350;BME280;2697;42.144;24.794;2024-03-06T04:18:20;7014.75;;;9.85;100.00
5350;BME280;2697;42.144;24.794;2024-03-06T04:20:46;7686.16;;;9.85;100.00
5350;BME280;2697;42.144;24.794;2024-03-06T04:23:11;8021.03;;;9.79;100.00
5350;BME280;2697;42.144;24.794;2024-03-06T04:25:36;8022.63;;;9.89;100.00
5350;BME280;2697;42.144;24.794;2024-03-06T04:28:04;11382.00;;;9.88;100.00
5350;BME280;2697;42.144;24.794;2024-03-06T04:30:29;12727.22;;;9.90;100.00
5350;BME280;2697;42.144;24.794;2024-03-06T04:32:55;15414.72;;;9.78;100.00
5350;BME280;2697;42.144;24.794;2024-03-06T04:35:20;13396.47;;;9.77;100.00
5350;BME280;2697;42.144;24.794;2024-03-06T04:37:46;15407.44;;;9.51;100.00
5350;BME280;2697;42.144;24.794;2024-03-06T04:40:11;10034.94;;;9.72;100.00
5350;BME280;2697;42.144;24.794;2024-03-06T04:42:40;14065.31;;;9.62;100.00
5350;BME280;2697;42.144;24.794;2024-03-06T04:45:14;15068.50;;;9.41;100.00
5350;BME280;2697;42.144;24.794;2024-03-06T04:47:40;12380.88;;;9.45;100.00
5350;BME280;2697;42.144;24.794;2024-03-06T04:50:09;13054.03;;;9.50;100.00
5350;BME280;2697;42.144;24.794;2024-03-06T04:52:36;17080.75;;;9.23;100.00
5350;BME280;2697;42.144;24.794;2024-03-06T04:55:01;14727.88;;;9.24;100.00
5350;BME280;2697;42.144;24.794;2024-03-06T04:57:28;14054.72;;;9.19;100.00
5350;BME280;2697;42.144;24.794;2024-03-06T04:59:53;12034.53;;;8.96;100.00
5350;BME280;2697;42.144;24.794;2024-03-06T05:02:18;11030.00;;;9.08;100.00
5350;BME280;2697;42.144;24.794;2024-03-06T05:04:44;14047.38;;;8.90;100.00
5350;BME280;2697;42.144;24.794;2024-03-06T05:07:09;14380.88;;;8.80;100.00
5350;BME280;2697;42.144;24.794;2024-03-06T05:09:35;15385.47;;;8.70;100.00
5350;BME280;2697;42.144;24.794;2024-03-06T05:12:01;15718.06;;;8.58;100.00
5350;BME280;2697;42.144;24.794;2024-03-06T05:14:26;13033.75;;;8.62;100.00
5350;BME280;2697;42.144;24.794;2024-03-06T05:16:51;13702.25;;;8.51;100.00
5350;BME280;2697;42.144;24.794;2024-03-06T05:19:18;13031.75;;;8.53;100.00
5350;BME280;2697;42.144;24.794;2024-03-06T05:21:43;11023.75;;;8.76;100.00
5350;BME280;2697;42.144;24.794;2024-03-06T05:24:09;17062.91;;;8.63;100.00
5350;BME280;2697;42.144;24.794;2024-03-06T05:26:34;20761.91;;;8.69;100.00
5350;BME280;2697;42.144;24.794;2024-03-06T05:29:00;24794.91;;;8.59;100.00
5350;BME280;2697;42.144;24.794;2024-03-06T05:31:25;23792.81;;;8.77;100.00
5350;BME280;2697;42.144;24.794;2024-03-06T05:33:51;22114.53;;;8.89;100.00
5350;BME280;2697;42.144;24.794;2024-03-06T05:36:16;25148.94;;;9.00;100.00
5350;BME280;2697;42.144;24.794;2024-03-06T05:38:43;28857.66;;;9.04;100.00
5350;BME280;2697;42.144;24.794;2024-03-06T05:41:08;28870.09;;;9.29;100.00
5350;BME280;2697;42.144;24.794;2024-03-06T05:43:34;35981.03;;;9.64;100.00
5350;BME280;2697;42.144;24.794;2024-03-06T05:45:59;46170.25;;;10.07;100.00
5350;BME280;2697;42.144;24.794;2024-03-06T05:48:26;63134.69;;;9.76;100.00
5350;BME280;2697;42.144;24.794;2024-03-06T05:50:52;70624.31;;;9.69;100.00
5350;BME280;2697;42.144;24.794;2024-03-06T05:53:17;73704.72;;;9.77;100.00
5350;BME280;2697;42.144;24.794;2024-03-06T05:55:42;70336.88;;;10.15;100.00
5350;BME280;2697;42.144;24.794;2024-03-06T05:58:08;79586.25;;;10.32;100.00
5350;BME280;2697;42.144;24.794;2024-03-06T06:00:33;107378.50;;;10.19;100.00
5350;BME280;2697;42.144;24.794;2024-03-06T06:02:58;101899.50;;;10.37;100.00
5350;BME280;2697;42.144;24.794;2024-03-06T06:05:24;112000.66;;;10.95;100.00
5350;BME280;2697;42.144;24.794;2024-03-06T06:07:50;155516.53;;;11.43;100.00
5350;BME280;2697;42.144;24.794;2024-03-06T06:10:16;155714.31;;;12.20;100.00
5350;BME280;2697;42.144;24.794;2024-03-06T06:12:41;155784.16;;;12.47;100.00
5350;BME280;2697;42.144;24.794;2024-03-06T06:15:07;155744.63;;;12.32;100.00
5350;BME280;2697;42.144;24.794;2024-03-06T06:17:33;155756.47;;;12.36;100.00
5350;BME280;2697;42.144;24.794;2024-03-06T06:19:59;155707.69;;;12.17;100.00
5350;BME280;2697;42.144;24.794;2024-03-06T06:22:27;155697.16;;;12.13;100.00
5350;BME280;2697;42.144;24.794;2024-03-06T06:24:52;155570.59;;;11.64;100.00
5350;BME280;2697;42.144;24.794;2024-03-06T06:27:20;155492.81;;;11.34;100.00
5350;BME280;2697;42.144;24.794;2024-03-06T06:29:45;155475.72;;;11.28;100.00
5350;BME280;2697;42.144;24.794;2024-03-06T06:32:11;155386.13;;;10.93;100.00
5350;BME280;2697;42.144;24.794;2024-03-06T06:34:36;155426.97;;;11.09;100.00
5350;BME280;2697;42.144;24.794;2024-03-06T06:37:01;155401.94;;;10.99;100.00
5350;BME280;2697;42.144;24.794;2024-03-06T06:39:27;155413.78;;;11.04;100.00
5350;BME280;2697;42.144;24.794;2024-03-06T06:41:52;155449.38;;;11.18;100.00
5350;BME280;2697;42.144;24.794;2024-03-06T06:44:18;155432.22;;;11.11;100.00
5350;BME280;2697;42.144;24.794;2024-03-06T06:46:43;155509.94;;;11.41;100.00
5350;BME280;2697;42.144;24.794;2024-03-06T06:49:09;155504.69;;;11.39;100.00
5350;BME280;2697;42.144;24.794;2024-03-06T06:51:34;155575.84;;;11.66;100.00
5350;BME280;2697;42.144;24.794;2024-03-06T06:54:00;155591.69;;;11.73;100.00
5350;BME280;2697;42.144;24.794;2024-03-06T06:56:26;155466.47;;;11.24;100.00
5350;BME280;2697;42.144;24.794;2024-03-06T06:58:51;155558.69;;;11.60;100.00
5350;BME280;2697;42.144;24.794;2024-03-06T07:01:16;155596.94;;;11.75;100.00
5350;BME280;2697;42.144;24.794;2024-03-06T07:03:42;155627.28;;;11.86;100.00
5350;BME280;2697;42.144;24.794;2024-03-06T07:06:08;155517.84;;;11.44;100.00
5350;BME280;2697;42.144;24.794;2024-03-06T07:08:33;155560.00;;;11.60;100.00
5350;BME280;2697;42.144;24.794;2024-03-06T07:10:59;155578.47;;;11.67;100.00
5350;BME280;2697;42.144;24.794;2024-03-06T07:13:24;155350.53;;;10.79;100.00
5350;BME280;2697;42.144;24.794;2024-03-06T07:15:49;155562.66;;;11.61;100.00
5350;BME280;2697;42.144;24.794;2024-03-06T07:18:15;155579.78;;;11.68;100.00
5350;BME280;2697;42.144;24.794;2024-03-06T07:20:40;155567.97;;;11.63;100.00
5350;BME280;2697;42.144;24.794;2024-03-06T07:23:06;155618.09;;;11.83;100.00
5350;BME280;2697;42.144;24.794;2024-03-06T07:25:32;155637.81;;;11.90;100.00
5350;BME280;2697;42.144;24.794;2024-03-06T07:27:57;155557.38;;;11.59;100.00
5350;BME280;2697;42.144;24.794;2024-03-06T07:30:22;155585.06;;;11.70;100.00
5350;BME280;2697;42.144;24.794;2024-03-06T07:32:48;155702.44;;;12.15;100.00
5350;BME280;2697;42.144;24.794;2024-03-06T07:35:13;155641.81;;;11.92;100.00
5350;BME280;2697;42.144;24.794;2024-03-06T07:37:39;155697.16;;;12.13;100.00
5350;BME280;2697;42.144;24.794;2024-03-06T07:40:06;155627.28;;;11.86;100.00
5350;BME280;2697;42.144;24.794;2024-03-06T07:42:34;155694.53;;;12.12;100.00
5350;BME280;2697;42.144;24.794;2024-03-06T07:45:00;155690.59;;;12.11;100.00
5350;BME280;2697;42.144;24.794;2024-03-06T07:47:25;155781.53;;;12.46;100.00
5350;BME280;2697;42.144;24.794;2024-03-06T07:49:52;155774.94;;;12.43;100.00
5350;BME280;2697;42.144;24.794;2024-03-06T07:52:17;155760.47;;;12.38;100.00
5350;BME280;2697;42.144;24.794;2024-03-06T07:54:43;155736.72;;;12.29;100.00
5350;BME280;2697;42.144;24.794;2024-03-06T07:57:08;155847.47;;;12.71;100.00
5350;BME280;2697;42.144;24.794;2024-03-06T07:59:36;155958.31;;;13.14;100.00
5350;BME280;2697;42.144;24.794;2024-03-06T08:02:01;156056.00;;;13.52;100.00
5350;BME280;2697;42.144;24.794;2024-03-06T08:04:27;156048.06;;;13.49;100.00
5350;BME280;2697;42.144;24.794;2024-03-06T08:06:52;156099.56;;;13.68;100.00
5350;BME280;2697;42.144;24.794;2024-03-06T08:09:17;155983.44;;;13.24;100.00
5350;BME280;2697;42.144;24.794;2024-03-06T08:11:44;156019.03;;;13.37;100.00
5350;BME280;2697;42.144;24.794;2024-03-06T08:14:10;156016.41;;;13.36;100.00
5350;BME280;2697;42.144;24.794;2024-03-06T08:16:35;156053.38;;;13.51;100.00
5350;BME280;2697;42.144;24.794;2024-03-06T08:19:02;156021.66;;;13.38;100.00
5350;BME280;2697;42.144;24.794;2024-03-06T08:21:27;156063.91;;;13.55;100.00
5350;BME280;2697;42.144;24.794;2024-03-06T08:23:53;156073.13;;;13.58;100.00
5350;BME280;2697;42.144;24.794;2024-03-06T08:26:19;156045.44;;;13.48;100.00
5350;BME280;2697;42.144;24.794;2024-03-06T08:28:44;155999.22;;;13.30;100.00
5350;BME280;2697;42.144;24.794;2024-03-06T08:31:10;156078.47;;;13.60;100.00
5350;BME280;2697;42.144;24.794;2024-03-06T08:33:35;156032.25;;;13.43;100.00
5350;BME280;2697;42.144;24.794;2024-03-06T08:36:01;156074.50;;;13.59;100.00
5350;BME280;2697;42.144;24.794;2024-03-06T08:38:27;156108.81;;;13.72;100.00
5350;BME280;2697;42.144;24.794;2024-03-06T08:40:52;156098.25;;;13.68;100.00
5350;BME280;2697;42.144;24.794;2024-03-06T08:43:18;156074.50;;;13.59;100.00
5350;BME280;2697;42.144;24.794;2024-03-06T08:45:44;156071.81;;;13.58;100.00
5350;BME280;2697;42.144;24.794;2024-03-06T08:48:09;156124.66;;;13.78;100.00
5350;BME280;2697;42.144;24.794;2024-03-06T08:50:36;156032.25;;;13.43;100.00
5350;BME280;2697;42.144;24.794;2024-03-06T08:53:02;156079.78;;;13.61;100.00
5350;BME280;2697;42.144;24.794;2024-03-06T08:55:27;156135.19;;;13.82;100.00
5350;BME280;2697;42.144;24.794;2024-03-06T08:57:56;156218.34;;;14.14;100.00
5350;BME280;2697;42.144;24.794;2024-03-06T09:00:21;156248.75;;;14.26;100.00
5350;BME280;2697;42.144;24.794;2024-03-06T09:02:47;156296.31;;;14.44;100.00
5350;BME280;2697;42.144;24.794;2024-03-06T09:05:12;156390.16;;;14.80;100.00
5350;BME280;2697;42.144;24.794;2024-03-06T09:07:39;156317.50;;;14.52;99.75
5350;BME280;2697;42.144;24.794;2024-03-06T09:10:15;156402.00;;;14.85;97.21
5350;BME280;2697;42.144;24.794;2024-03-06T09:12:40;156402.00;;;14.85;93.40
5350;BME280;2697;42.144;24.794;2024-03-06T09:15:07;156404.66;;;14.86;95.10
5350;BME280;2697;42.144;24.794;2024-03-06T09:17:32;156510.38;;;15.27;92.35
5350;BME280;2697;42.144;24.794;2024-03-06T09:19:58;156565.88;;;15.48;88.05
5350;BME280;2697;42.144;24.794;2024-03-06T09:22:23;156560.59;;;15.46;83.12
5350;BME280;2697;42.144;24.794;2024-03-06T09:24:49;156499.78;;;15.23;86.67
5350;BME280;2697;42.144;24.794;2024-03-06T09:27:16;156477.31;;;15.14;87.75
5350;BME280;2697;42.144;24.794;2024-03-06T09:29:42;156489.25;;;15.19;85.73
5350;BME280;2697;42.144;24.794;2024-03-06T09:32:08;156427.09;;;14.95;83.49
5350;BME280;2697;42.144;24.794;2024-03-06T09:34:33;156405.97;;;14.87;87.09
5350;BME280;2697;42.144;24.794;2024-03-06T09:36:59;156474.69;;;15.13;83.45
5350;BME280;2697;42.144;24.794;2024-03-06T09:39:24;156531.50;;;15.35;81.12
5350;BME280;2697;42.144;24.794;2024-03-06T09:41:50;156425.78;;;14.94;86.17
5350;BME280;2697;42.144;24.794;2024-03-06T09:44:17;156387.47;;;14.79;86.56
5350;BME280;2697;42.144;24.794;2024-03-06T09:46:46;156535.50;;;15.36;84.66
5350;BME280;2697;42.144;24.794;2024-03-06T09:49:16;156629.34;;;15.73;81.08
5350;BME280;2697;42.144;24.794;2024-03-06T09:51:43;156653.16;;;15.82;79.53
5350;BME280;2697;42.144;24.794;2024-03-06T09:54:13;156675.63;;;15.90;79.94
5350;BME280;2697;42.144;24.794;2024-03-06T09:56:43;156743.06;;;16.16;80.73
5350;BME280;2697;42.144;24.794;2024-03-06T09:59:09;156625.38;;;15.71;77.23
5350;BME280;2697;42.144;24.794;2024-03-06T10:01:39;156568.53;;;15.49;80.16
5350;BME280;2697;42.144;24.794;2024-03-06T10:04:22;156753.69;;;16.20;79.55
5350;BME280;2697;42.144;24.794;2024-03-06T10:06:49;156805.25;;;16.40;78.17
5350;BME280;2697;42.144;24.794;2024-03-06T10:09:17;156766.88;;;16.25;75.11
5350;BME280;2697;42.144;24.794;2024-03-06T10:11:43;156830.38;;;16.50;73.80
5350;BME280;2697;42.144;24.794;2024-03-06T10:14:08;156815.81;;;16.44;77.12
5350;BME280;2697;42.144;24.794;2024-03-06T10:16:36;156838.31;;;16.53;73.66
5350;BME280;2697;42.144;24.794;2024-03-06T10:19:18;156651.84;;;15.81;72.46
5350;BME280;2697;42.144;24.794;2024-03-06T10:21:44;156686.25;;;15.94;75.26
5350;BME280;2697;42.144;24.794;2024-03-06T10:24:10;156815.81;;;16.44;74.28
5350;BME280;2697;42.144;24.794;2024-03-06T10:26:36;156944.22;;;16.94;71.88
5350;BME280;2697;42.144;24.794;2024-03-06T10:29:02;156962.72;;;17.01;70.30
5350;BME280;2697;42.144;24.794;2024-03-06T10:31:27;156999.78;;;17.15;69.10
5350;BME280;2697;42.144;24.794;2024-03-06T10:33:55;157034.19;;;17.28;68.79
5350;BME280;2697;42.144;24.794;2024-03-06T10:36:21;157027.56;;;17.26;68.00
5350;BME280;2697;42.144;24.794;2024-03-06T10:38:50;156965.34;;;17.02;69.89
5350;BME280;2697;42.144;24.794;2024-03-06T10:41:18;156978.63;;;17.07;68.65
5350;BME280;2697;42.144;24.794;2024-03-06T10:43:52;156933.63;;;16.90;69.87
5350;BME280;2697;42.144;24.794;2024-03-06T10:46:20;156867.41;;;16.64;70.16
5350;BME280;2697;42.144;24.794;2024-03-06T10:48:46;156991.81;;;17.12;69.23
5350;BME280;2697;42.144;24.794;2024-03-06T10:51:16;157071.25;;;17.43;67.69
5350;BME280;2697;42.144;24.794;2024-03-06T10:53:43;157113.63;;;17.59;67.61
5350;BME280;2697;42.144;24.794;2024-03-06T10:56:09;156895.22;;;16.75;74.31
5350;BME280;2697;42.144;24.794;2024-03-06T10:58:36;157084.47;;;17.48;75.24
5350;BME280;2697;42.144;24.794;2024-03-06T11:01:03;157250.03;;;18.11;72.18
5350;BME280;2697;42.144;24.794;2024-03-06T11:03:29;157220.91;;;18.00;71.06
5350;BME280;2697;42.144;24.794;2024-03-06T11:05:56;157275.19;;;18.21;69.12
5350;BME280;2697;42.144;24.794;2024-03-06T11:08:22;157106.97;;;17.56;66.95
5350;BME280;2697;42.144;24.794;2024-03-06T11:10:48;157026.25;;;17.25;69.90
5350;BME280;2697;42.144;24.794;2024-03-06T11:15:45;157056.69;;;17.37;70.16
5350;BME280;2697;42.144;24.794;2024-03-06T11:18:43;156981.25;;;17.08;71.54
5350;BME280;2697;42.144;24.794;2024-03-06T11:23:34;157317.59;;;18.37;67.21
5350;BME280;2697;42.144;24.794;2024-03-06T11:26:04;157238.13;;;18.07;69.96
5350;BME280;2697;42.144;24.794;2024-03-06T11:28:32;157281.81;;;18.23;67.19
5350;BME280;2697;42.144;24.794;2024-03-06T11:31:09;157330.81;;;18.42;67.76
5350;BME280;2697;42.144;24.794;2024-03-06T11:33:40;156850.25;;;16.58;75.20
5350;BME280;2697;42.144;24.794;2024-03-06T11:38:57;157166.63;;;17.79;72.62
5350;BME280;2697;42.144;24.794;2024-03-06T11:41:25;157214.31;;;17.98;70.44
5350;BME280;2697;42.144;24.794;2024-03-06T11:43:52;157039.47;;;17.30;75.62
5350;BME280;2697;42.144;24.794;2024-03-06T11:46:42;157051.41;;;17.35;73.54
5350;BME280;2697;42.144;24.794;2024-03-06T11:49:21;157093.78;;;17.51;73.19
5350;BME280;2697;42.144;24.794;2024-03-06T11:51:47;156938.91;;;16.92;77.31
5350;BME280;2697;42.144;24.794;2024-03-06T11:54:14;156896.59;;;16.75;77.40
5350;BME280;2697;42.144;24.794;2024-03-06T11:56:40;156913.75;;;16.82;76.31
5350;BME280;2697;42.144;24.794;2024-03-06T11:59:06;156909.81;;;16.80;78.85
5350;BME280;2697;42.144;24.794;2024-03-06T12:01:35;156879.38;;;16.69;76.83
5350;BME280;2697;42.144;24.794;2024-03-06T12:04:02;156748.34;;;16.18;80.58
5350;BME280;2697;42.144;24.794;2024-03-06T12:06:28;156675.63;;;15.90;83.16
5350;BME280;2697;42.144;24.794;2024-03-06T12:08:54;156784.09;;;16.32;80.22
5350;BME280;2697;42.144;24.794;2024-03-06T12:11:19;156679.63;;;15.92;81.20
5350;BME280;2697;42.144;24.794;2024-03-06T12:13:47;156694.16;;;15.98;81.97
5350;BME280;2697;42.144;24.794;2024-03-06T12:16:14;156645.22;;;15.79;83.58
5350;BME280;2697;42.144;24.794;2024-03-06T12:18:40;156621.44;;;15.70;84.62
5350;BME280;2697;42.144;24.794;2024-03-06T12:21:05;156610.88;;;15.65;87.27
5350;BME280;2697;42.144;24.794;2024-03-06T12:23:31;156637.31;;;15.76;86.32
5350;BME280;2697;42.144;24.794;2024-03-06T12:26:07;156622.75;;;15.70;85.40
5350;BME280;2697;42.144;24.794;2024-03-06T12:28:39;156674.31;;;15.90;85.81
5350;BME280;2697;42.144;24.794;2024-03-06T12:31:08;156653.16;;;15.82;88.89
5350;BME280;2697;42.144;24.794;2024-03-06T12:33:33;156703.44;;;16.01;88.29
5350;BME280;2697;42.144;24.794;2024-03-06T12:36:06;156753.69;;;16.20;86.18
5350;BME280;2697;42.144;24.794;2024-03-06T12:38:36;156856.84;;;16.60;80.88
5350;BME280;2697;42.144;24.794;2024-03-06T12:41:02;156904.53;;;16.78;79.31
5350;BME280;2697;42.144;24.794;2024-03-06T12:43:28;156903.19;;;16.78;80.05
5350;BME280;2697;42.144;24.794;2024-03-06T12:45:56;156921.72;;;16.85;78.89
5350;BME280;2697;42.144;24.794;2024-03-06T12:48:23;157007.72;;;17.18;78.00
5350;BME280;2697;42.144;24.794;2024-03-06T12:50:49;156912.44;;;16.81;81.69
5350;BME280;2697;42.144;24.794;2024-03-06T12:53:20;156949.50;;;16.96;79.32
5350;BME280;2697;42.144;24.794;2024-03-06T12:55:45;157050.09;;;17.34;77.65
5350;BME280;2697;42.144;24.794;2024-03-06T12:58:12;156862.13;;;16.62;79.79
5350;BME280;2697;42.144;24.794;2024-03-06T13:00:37;156795.97;;;16.37;81.02
5350;BME280;2697;42.144;24.794;2024-03-06T13:03:03;156899.25;;;16.76;80.78